sensor_id;sensor_type;location;lat;lon;timestamp;P1;durP1;ratioP1;P2;durP2;ratioP2
19664;SDS011;9980;51.020;7.772;2022-08-05T00:00:14;10.37;;;4.20;;
19664;SDS011;9980;51.020;7.772;2022-08-05T00:02:44;6.15;;;3.67;;
19664;SDS011;9980;51.020;7.772;2022-08-05T00:05:17;5.05;;;3.75;;
19664;SDS011;9980;51.020;7.772;2022-08-05T00:08:05;5.15;;;3.78;;
19664;SDS011;9980;51.020;7.772;2022-08-05T00:10:55;7.30;;;3.93;;
19664;SDS011;9980;51.020;7.772;2022-08-05T00:13:26;5.60;;;3.90;;
19664;SDS011;9980;51.020;7.772;2022-08-05T00:16:07;8.83;;;3.87;;
19664;SDS011;9980;51.020;7.772;2022-08-05T00:18:38;5.47;;;4.27;;
19664;SDS011;9980;51.020;7.772;2022-08-05T00:21:09;7.82;;;4.32;;
19664;SDS011;9980;51.020;7.772;2022-08-05T00:23:40;9.95;;;4.68;;
19664;SDS011;9980;51.020;7.772;2022-08-05T00:26:18;5.97;;;5.17;;
19664;SDS011;9980;51.020;7.772;2022-08-05T00:28:47;6.97;;;4.13;;
19664;SDS011;9980;51.020;7.772;2022-08-05T00:31:16;6.10;;;4.67;;
19664;SDS011;9980;51.020;7.772;2022-08-05T00:34:03;10.20;;;4.40;;
19664;SDS011;9980;51.020;7.772;2022-08-05T00:36:50;5.53;;;4.03;;
19664;SDS011;9980;51.020;7.772;2022-08-05T00:39:37;8.10;;;4.67;;
19664;SDS011;9980;51.020;7.772;2022-08-05T00:42:32;9.60;;;4.47;;
19664;SDS011;9980;51.020;7.772;2022-08-05T00:45:05;7.83;;;4.50;;
19664;SDS011;9980;51.020;7.772;2022-08-05T00:47:38;4.40;;;3.93;;
19664;SDS011;9980;51.020;7.772;2022-08-05T00:50:23;4.03;;;3.40;;
19664;SDS011;9980;51.020;7.772;2022-08-05T00:52:52;8.67;;;4.60;;
19664;SDS011;9980;51.020;7.772;2022-08-05T00:55:20;7.33;;;4.83;;
19664;SDS011;9980;51.020;7.772;2022-08-05T00:58:07;8.23;;;4.60;;
19664;SDS011;9980;51.020;7.772;2022-08-05T01:00:36;5.93;;;3.77;;
19664;SDS011;9980;51.020;7.772;2022-08-05T01:03:05;4.10;;;3.08;;
19664;SDS011;9980;51.020;7.772;2022-08-05T01:05:33;6.40;;;4.17;;
19664;SDS011;9980;51.020;7.772;2022-08-05T01:08:05;5.00;;;4.07;;
19664;SDS011;9980;51.020;7.772;2022-08-05T01:10:53;4.70;;;4.30;;
19664;SDS011;9980;51.020;7.772;2022-08-05T01:16:29;5.90;;;4.10;;
19664;SDS011;9980;51.020;7.772;2022-08-05T01:30:40;9.83;;;4.47;;
19664;SDS011;9980;51.020;7.772;2022-08-05T01:33:20;3.60;;;3.30;;
19664;SDS011;9980;51.020;7.772;2022-08-05T01:36:02;8.47;;;4.63;;
19664;SDS011;9980;51.020;7.772;2022-08-05T01:38:41;6.97;;;3.80;;
19664;SDS011;9980;51.020;7.772;2022-08-05T01:41:17;4.90;;;4.37;;
19664;SDS011;9980;51.020;7.772;2022-08-05T01:43:51;5.47;;;4.57;;
19664;SDS011;9980;51.020;7.772;2022-08-05T01:46:19;4.60;;;4.13;;
19664;SDS011;9980;51.020;7.772;2022-08-05T01:49:09;5.10;;;4.53;;
19664;SDS011;9980;51.020;7.772;2022-08-05T01:51:50;5.30;;;4.80;;
19664;SDS011;9980;51.020;7.772;2022-08-05T01:54:35;5.97;;;3.63;;
19664;SDS011;9980;51.020;7.772;2022-08-05T01:57:11;4.27;;;3.83;;
19664;SDS011;9980;51.020;7.772;2022-08-05T02:00:06;4.83;;;3.77;;
19664;SDS011;9980;51.020;7.772;2022-08-05T02:02:39;8.80;;;3.80;;
19664;SDS011;9980;51.020;7.772;2022-08-05T02:05:21;4.07;;;3.57;;
19664;SDS011;9980;51.020;7.772;2022-08-05T02:07:59;5.63;;;3.87;;
19664;SDS011;9980;51.020;7.772;2022-08-05T02:10:30;4.57;;;3.77;;
19664;SDS011;9980;51.020;7.772;2022-08-05T02:13:15;7.73;;;3.60;;
19664;SDS011;9980;51.020;7.772;2022-08-05T02:16:20;3.83;;;3.43;;
19664;SDS011;9980;51.020;7.772;2022-08-05T02:19:00;4.17;;;3.43;;
19664;SDS011;9980;51.020;7.772;2022-08-05T02:21:47;4.10;;;3.03;;
19664;SDS011;9980;51.020;7.772;2022-08-05T02:24:27;9.30;;;4.13;;
19664;SDS011;9980;51.020;7.772;2022-08-05T02:27:07;7.47;;;4.47;;
19664;SDS011;9980;51.020;7.772;2022-08-05T02:29:38;6.57;;;4.17;;
19664;SDS011;9980;51.020;7.772;2022-08-05T02:32:25;5.93;;;4.37;;
19664;SDS011;9980;51.020;7.772;2022-08-05T02:34:57;5.40;;;3.67;;
19664;SDS011;9980;51.020;7.772;2022-08-05T02:37:40;3.87;;;3.57;;
19664;SDS011;9980;51.020;7.772;2022-08-05T02:40:13;8.43;;;4.40;;
19664;SDS011;9980;51.020;7.772;2022-08-05T02:42:42;5.53;;;4.63;;
19664;SDS011;9980;51.020;7.772;2022-08-05T02:45:18;5.03;;;4.53;;
19664;SDS011;9980;51.020;7.772;2022-08-05T02:47:50;5.40;;;4.07;;
19664;SDS011;9980;51.020;7.772;2022-08-05T02:50:38;6.97;;;4.30;;
19664;SDS011;9980;51.020;7.772;2022-08-05T02:53:10;5.80;;;3.83;;
19664;SDS011;9980;51.020;7.772;2022-08-05T02:55:48;5.87;;;5.00;;
19664;SDS011;9980;51.020;7.772;2022-08-05T02:58:25;6.00;;;5.40;;
19664;SDS011;9980;51.020;7.772;2022-08-05T03:00:55;5.40;;;4.90;;
19664;SDS011;9980;51.020;7.772;2022-08-05T03:03:28;6.90;;;5.93;;
19664;SDS011;9980;51.020;7.772;2022-08-05T03:05:59;10.23;;;6.30;;
19664;SDS011;9980;51.020;7.772;2022-08-05T03:08:48;6.97;;;5.90;;
19664;SDS011;9980;51.020;7.772;2022-08-05T03:11:21;6.90;;;6.27;;
19664;SDS011;9980;51.020;7.772;2022-08-05T03:14:11;6.43;;;5.77;;
19664;SDS011;9980;51.020;7.772;2022-08-05T03:16:38;9.43;;;6.97;;
19664;SDS011;9980;51.020;7.772;2022-08-05T03:19:06;8.20;;;5.50;;
19664;SDS011;9980;51.020;7.772;2022-08-05T03:21:42;7.33;;;6.20;;
19664;SDS011;9980;51.020;7.772;2022-08-05T03:24:15;8.10;;;6.40;;
19664;SDS011;9980;51.020;7.772;2022-08-05T03:26:55;10.60;;;6.50;;
19664;SDS011;9980;51.020;7.772;2022-08-05T03:29:24;9.87;;;6.83;;
19664;SDS011;9980;51.020;7.772;2022-08-05T03:32:11;8.77;;;6.60;;
19664;SDS011;9980;51.020;7.772;2022-08-05T03:34:41;7.93;;;6.47;;
19664;SDS011;9980;51.020;7.772;2022-08-05T03:37:17;7.23;;;6.03;;
19664;SDS011;9980;51.020;7.772;2022-08-05T03:39:56;12.07;;;6.70;;
19664;SDS011;9980;51.020;7.772;2022-08-05T03:42:29;12.03;;;6.67;;
19664;SDS011;9980;51.020;7.772;2022-08-05T03:45:07;7.47;;;5.70;;
19664;SDS011;9980;51.020;7.772;2022-08-05T03:47:49;12.90;;;8.70;;
19664;SDS011;9980;51.020;7.772;2022-08-05T03:50:16;16.10;;;8.73;;
19664;SDS011;9980;51.020;7.772;2022-08-05T03:53:30;10.10;;;7.27;;
19664;SDS011;9980;51.020;7.772;2022-08-05T03:56:04;10.00;;;7.27;;
19664;SDS011;9980;51.020;7.772;2022-08-05T03:58:59;9.43;;;6.77;;
19664;SDS011;9980;51.020;7.772;2022-08-05T04:01:31;10.97;;;7.07;;
19664;SDS011;9980;51.020;7.772;2022-08-05T04:04:05;26.90;;;10.50;;
19664;SDS011;9980;51.020;7.772;2022-08-05T04:06:36;26.90;;;11.33;;
19664;SDS011;9980;51.020;7.772;2022-08-05T04:09:13;8.20;;;6.67;;
19664;SDS011;9980;51.020;7.772;2022-08-05T04:11:51;6.87;;;6.17;;
19664;SDS011;9980;51.020;7.772;2022-08-05T04:14:23;23.03;;;9.10;;
19664;SDS011;9980;51.020;7.772;2022-08-05T04:16:56;19.27;;;8.70;;
19664;SDS011;9980;51.020;7.772;2022-08-05T04:19:26;15.33;;;8.33;;
19664;SDS011;9980;51.020;7.772;2022-08-05T04:21:55;6.30;;;5.50;;
19664;SDS011;9980;51.020;7.772;2022-08-05T04:24:40;9.43;;;6.77;;
19664;SDS011;9980;51.020;7.772;2022-08-05T04:27:18;7.20;;;5.30;;
19664;SDS011;9980;51.020;7.772;2022-08-05T04:30:05;6.37;;;5.63;;
19664;SDS011;9980;51.020;7.772;2022-08-05T04:32:34;8.63;;;6.63;;
19664;SDS011;9980;51.020;7.772;2022-08-05T04:35:03;6.63;;;4.97;;
19664;SDS011;9980;51.020;7.772;2022-08-05T04:37:31;7.07;;;6.33;;
19664;SDS011;9980;51.020;7.772;2022-08-05T04:40:18;8.93;;;6.53;;
19664;SDS011;9980;51.020;7.772;2022-08-05T04:42:45;7.87;;;7.00;;
19664;SDS011;9980;51.020;7.772;2022-08-05T04:45:13;7.03;;;5.93;;
19664;SDS011;9980;51.020;7.772;2022-08-05T04:48:09;8.37;;;6.40;;
19664;SDS011;9980;51.020;7.772;2022-08-05T04:50:52;11.00;;;6.53;;
19664;SDS011;9980;51.020;7.772;2022-08-05T04:53:35;9.17;;;6.17;;
19664;SDS011;9980;51.020;7.772;2022-08-05T04:56:05;8.67;;;7.17;;
19664;SDS011;9980;51.020;7.772;2022-08-05T04:58:53;23.80;;;9.13;;
19664;SDS011;9980;51.020;7.772;2022-08-05T05:01:21;19.53;;;9.07;;
19664;SDS011;9980;51.020;7.772;2022-08-05T05:04:08;17.50;;;8.80;;
19664;SDS011;9980;51.020;7.772;2022-08-05T05:06:35;9.67;;;7.80;;
19664;SDS011;9980;51.020;7.772;2022-08-05T05:09:14;22.77;;;9.47;;
19664;SDS011;9980;51.020;7.772;2022-08-05T05:11:43;24.73;;;10.70;;
19664;SDS011;9980;51.020;7.772;2022-08-05T05:14:21;19.43;;;9.87;;
19664;SDS011;9980;51.020;7.772;2022-08-05T05:17:00;17.63;;;8.97;;
19664;SDS011;9980;51.020;7.772;2022-08-05T05:19:28;17.13;;;9.97;;
19664;SDS011;9980;51.020;7.772;2022-08-05T05:22:09;11.00;;;7.70;;
19664;SDS011;9980;51.020;7.772;2022-08-05T05:24:51;10.03;;;8.17;;
19664;SDS011;9980;51.020;7.772;2022-08-05T05:27:26;24.87;;;10.20;;
19664;SDS011;9980;51.020;7.772;2022-08-05T05:30:12;11.47;;;8.77;;
19664;SDS011;9980;51.020;7.772;2022-08-05T05:32:58;13.67;;;8.93;;
19664;SDS011;9980;51.020;7.772;2022-08-05T05:35:42;12.93;;;9.60;;
19664;SDS011;9980;51.020;7.772;2022-08-05T05:38:14;17.03;;;9.43;;
19664;SDS011;9980;51.020;7.772;2022-08-05T05:40:53;8.50;;;7.70;;
19664;SDS011;9980;51.020;7.772;2022-08-05T05:43:22;11.57;;;8.43;;
19664;SDS011;9980;51.020;7.772;2022-08-05T05:46:09;12.87;;;9.57;;
19664;SDS011;9980;51.020;7.772;2022-08-05T05:48:44;9.53;;;8.63;;
19664;SDS011;9980;51.020;7.772;2022-08-05T05:51:17;16.90;;;10.23;;
19664;SDS011;9980;51.020;7.772;2022-08-05T05:53:50;14.00;;;9.73;;
19664;SDS011;9980;51.020;7.772;2022-08-05T05:56:28;10.20;;;9.20;;
19664;SDS011;9980;51.020;7.772;2022-08-05T05:59:03;9.33;;;8.20;;
19664;SDS011;9980;51.020;7.772;2022-08-05T06:01:34;12.73;;;8.97;;
19664;SDS011;9980;51.020;7.772;2022-08-05T06:04:05;13.47;;;9.10;;
19664;SDS011;9980;51.020;7.772;2022-08-05T06:06:38;10.53;;;9.43;;
19664;SDS011;9980;51.020;7.772;2022-08-05T06:09:08;10.40;;;9.33;;
19664;SDS011;9980;51.020;7.772;2022-08-05T06:11:51;13.80;;;9.17;;
19664;SDS011;9980;51.020;7.772;2022-08-05T06:14:27;10.67;;;9.57;;
19664;SDS011;9980;51.020;7.772;2022-08-05T06:16:55;14.77;;;9.23;;
19664;SDS011;9980;51.020;7.772;2022-08-05T06:19:23;10.33;;;9.33;;
19664;SDS011;9980;51.020;7.772;2022-08-05T06:22:04;10.70;;;9.23;;
19664;SDS011;9980;51.020;7.772;2022-08-05T06:24:34;11.13;;;10.03;;
19664;SDS011;9980;51.020;7.772;2022-08-05T06:27:13;11.43;;;10.23;;
19664;SDS011;9980;51.020;7.772;2022-08-05T06:30:00;11.10;;;9.73;;
19664;SDS011;9980;51.020;7.772;2022-08-05T06:32:46;10.87;;;9.77;;
19664;SDS011;9980;51.020;7.772;2022-08-05T06:35:16;15.10;;;10.37;;
19664;SDS011;9980;51.020;7.772;2022-08-05T06:38:03;16.63;;;10.73;;
19664;SDS011;9980;51.020;7.772;2022-08-05T06:40:36;14.27;;;10.17;;
19664;SDS011;9980;51.020;7.772;2022-08-05T06:43:09;12.63;;;9.67;;
19664;SDS011;9980;51.020;7.772;2022-08-05T06:45:57;11.17;;;9.73;;
19664;SDS011;9980;51.020;7.772;2022-08-05T06:48:32;17.37;;;11.67;;
19664;SDS011;9980;51.020;7.772;2022-08-05T06:51:23;11.97;;;10.50;;
19664;SDS011;9980;51.020;7.772;2022-08-05T06:53:59;17.83;;;13.03;;
19664;SDS011;9980;51.020;7.772;2022-08-05T06:56:28;15.73;;;12.70;;
19664;SDS011;9980;51.020;7.772;2022-08-05T06:59:00;15.13;;;12.60;;
19664;SDS011;9980;51.020;7.772;2022-08-05T07:01:37;14.20;;;12.70;;
19664;SDS011;9980;51.020;7.772;2022-08-05T07:04:07;14.48;;;12.23;;
19664;SDS011;9980;51.020;7.772;2022-08-05T07:06:35;15.53;;;13.00;;
19664;SDS011;9980;51.020;7.772;2022-08-05T07:09:02;16.40;;;13.07;;
19664;SDS011;9980;51.020;7.772;2022-08-05T07:11:31;16.80;;;13.17;;
19664;SDS011;9980;51.020;7.772;2022-08-05T07:14:02;16.53;;;14.57;;
19664;SDS011;9980;51.020;7.772;2022-08-05T07:16:55;26.60;;;15.43;;
19664;SDS011;9980;51.020;7.772;2022-08-05T07:19:47;18.50;;;14.47;;
19664;SDS011;9980;51.020;7.772;2022-08-05T07:22:36;26.07;;;16.53;;
19664;SDS011;9980;51.020;7.772;2022-08-05T07:25:03;18.17;;;15.60;;
19664;SDS011;9980;51.020;7.772;2022-08-05T07:27:52;19.50;;;16.50;;
19664;SDS011;9980;51.020;7.772;2022-08-05T07:30:31;19.90;;;16.80;;
19664;SDS011;9980;51.020;7.772;2022-08-05T07:33:05;19.50;;;14.52;;
19664;SDS011;9980;51.020;7.772;2022-08-05T07:35:42;18.83;;;15.30;;
19664;SDS011;9980;51.020;7.772;2022-08-05T07:38:31;17.60;;;15.05;;
19664;SDS011;9980;51.020;7.772;2022-08-05T07:41:09;18.10;;;16.08;;
19664;SDS011;9980;51.020;7.772;2022-08-05T07:44:06;16.80;;;15.00;;
19664;SDS011;9980;51.020;7.772;2022-08-05T07:46:39;19.33;;;17.23;;
19664;SDS011;9980;51.020;7.772;2022-08-05T07:49:13;20.60;;;17.03;;
19664;SDS011;9980;51.020;7.772;2022-08-05T07:51:40;21.03;;;17.37;;
19664;SDS011;9980;51.020;7.772;2022-08-05T07:54:19;23.23;;;17.38;;
19664;SDS011;9980;51.020;7.772;2022-08-05T07:56:58;18.88;;;15.60;;
19664;SDS011;9980;51.020;7.772;2022-08-05T07:59:49;18.40;;;15.45;;
19664;SDS011;9980;51.020;7.772;2022-08-05T08:02:17;19.13;;;15.07;;
19664;SDS011;9980;51.020;7.772;2022-08-05T08:04:52;17.60;;;14.00;;
19664;SDS011;9980;51.020;7.772;2022-08-05T08:07:19;20.13;;;15.47;;
19664;SDS011;9980;51.020;7.772;2022-08-05T08:09:50;18.57;;;15.57;;
19664;SDS011;9980;51.020;7.772;2022-08-05T08:12:22;21.23;;;15.77;;
19664;SDS011;9980;51.020;7.772;2022-08-05T08:15:05;18.73;;;15.83;;
19664;SDS011;9980;51.020;7.772;2022-08-05T08:17:41;20.23;;;16.60;;
19664;SDS011;9980;51.020;7.772;2022-08-05T08:20:18;23.17;;;17.17;;
19664;SDS011;9980;51.020;7.772;2022-08-05T08:23:10;19.73;;;14.50;;
19664;SDS011;9980;51.020;7.772;2022-08-05T08:25:56;22.10;;;14.37;;
19664;SDS011;9980;51.020;7.772;2022-08-05T08:28:27;19.23;;;14.77;;
19664;SDS011;9980;51.020;7.772;2022-08-05T08:31:15;20.13;;;14.63;;
19664;SDS011;9980;51.020;7.772;2022-08-05T08:33:44;17.60;;;15.10;;
19664;SDS011;9980;51.020;7.772;2022-08-05T08:36:17;19.07;;;14.90;;
19664;SDS011;9980;51.020;7.772;2022-08-05T08:39:04;19.40;;;15.23;;
19664;SDS011;9980;51.020;7.772;2022-08-05T08:41:41;20.30;;;15.97;;
19664;SDS011;9980;51.020;7.772;2022-08-05T08:44:24;21.20;;;15.40;;
19664;SDS011;9980;51.020;7.772;2022-08-05T08:47:18;23.43;;;15.70;;
19664;SDS011;9980;51.020;7.772;2022-08-05T08:50:13;20.70;;;15.90;;
19664;SDS011;9980;51.020;7.772;2022-08-05T08:53:05;18.87;;;15.80;;
19664;SDS011;9980;51.020;7.772;2022-08-05T08:55:38;21.43;;;16.30;;
19664;SDS011;9980;51.020;7.772;2022-08-05T08:58:26;22.43;;;16.23;;
19664;SDS011;9980;51.020;7.772;2022-08-05T09:01:13;23.10;;;17.30;;
19664;SDS011;9980;51.020;7.772;2022-08-05T09:03:44;26.23;;;18.77;;
19664;SDS011;9980;51.020;7.772;2022-08-05T09:06:22;23.57;;;18.80;;
19664;SDS011;9980;51.020;7.772;2022-08-05T09:08:56;24.13;;;18.10;;
19664;SDS011;9980;51.020;7.772;2022-08-05T09:11:26;22.43;;;18.37;;
19664;SDS011;9980;51.020;7.772;2022-08-05T09:14:13;22.33;;;18.30;;
19664;SDS011;9980;51.020;7.772;2022-08-05T09:17:03;24.93;;;20.13;;
19664;SDS011;9980;51.020;7.772;2022-08-05T09:19:54;25.63;;;20.30;;
19664;SDS011;9980;51.020;7.772;2022-08-05T09:22:38;28.00;;;19.87;;
19664;SDS011;9980;51.020;7.772;2022-08-05T09:25:50;23.57;;;19.43;;
19664;SDS011;9980;51.020;7.772;2022-08-05T09:28:34;24.87;;;20.70;;
19664;SDS011;9980;51.020;7.772;2022-08-05T09:31:09;28.07;;;22.03;;
19664;SDS011;9980;51.020;7.772;2022-08-05T09:34:03;26.50;;;21.70;;
19664;SDS011;9980;51.020;7.772;2022-08-05T09:39:21;27.33;;;21.53;;
19664;SDS011;9980;51.020;7.772;2022-08-05T09:42:10;25.47;;;21.00;;
19664;SDS011;9980;51.020;7.772;2022-08-05T09:44:53;26.45;;;21.63;;
19664;SDS011;9980;51.020;7.772;2022-08-05T09:47:28;28.77;;;21.30;;
19664;SDS011;9980;51.020;7.772;2022-08-05T09:50:17;25.00;;;19.90;;
19664;SDS011;9980;51.020;7.772;2022-08-05T09:53:05;27.23;;;20.87;;
19664;SDS011;9980;51.020;7.772;2022-08-05T09:55:38;29.33;;;21.88;;
19664;SDS011;9980;51.020;7.772;2022-08-05T09:58:24;31.07;;;23.50;;
19664;SDS011;9980;51.020;7.772;2022-08-05T10:00:58;25.47;;;19.97;;
19664;SDS011;9980;51.020;7.772;2022-08-05T10:03:53;27.10;;;20.90;;
19664;SDS011;9980;51.020;7.772;2022-08-05T10:06:25;27.53;;;21.43;;
19664;SDS011;9980;51.020;7.772;2022-08-05T10:08:53;28.50;;;21.67;;
19664;SDS011;9980;51.020;7.772;2022-08-05T10:11:22;24.30;;;18.38;;
19664;SDS011;9980;51.020;7.772;2022-08-05T10:14:02;23.10;;;18.98;;
19664;SDS011;9980;51.020;7.772;2022-08-05T10:16:52;24.70;;;19.20;;
19664;SDS011;9980;51.020;7.772;2022-08-05T10:19:25;23.95;;;18.02;;
19664;SDS011;9980;51.020;7.772;2022-08-05T10:22:12;26.75;;;18.75;;
19664;SDS011;9980;51.020;7.772;2022-08-05T10:24:55;22.05;;;18.25;;
19664;SDS011;9980;51.020;7.772;2022-08-05T10:27:23;22.38;;;17.27;;
19664;SDS011;9980;51.020;7.772;2022-08-05T10:30:11;20.23;;;16.90;;
19664;SDS011;9980;51.020;7.772;2022-08-05T10:32:57;19.92;;;15.40;;
19664;SDS011;9980;51.020;7.772;2022-08-05T10:35:28;17.73;;;14.57;;
19664;SDS011;9980;51.020;7.772;2022-08-05T10:38:09;17.20;;;12.85;;
19664;SDS011;9980;51.020;7.772;2022-08-05T10:43:38;11.30;;;9.63;;
19664;SDS011;9980;51.020;7.772;2022-08-05T10:46:17;7.68;;;6.60;;
19664;SDS011;9980;51.020;7.772;2022-08-05T10:48:54;7.00;;;6.15;;
19664;SDS011;9980;51.020;7.772;2022-08-05T10:51:45;3.08;;;2.60;;
19664;SDS011;9980;51.020;7.772;2022-08-05T10:54:45;1.42;;;1.30;;
19664;SDS011;9980;51.020;7.772;2022-08-05T10:57:28;1.10;;;1.00;;
19664;SDS011;9980;51.020;7.772;2022-08-05T11:06:04;1.00;;;1.00;;
19664;SDS011;9980;51.020;7.772;2022-08-05T11:18:29;1.73;;;1.23;;
19664;SDS011;9980;51.020;7.772;2022-08-05T11:21:00;1.43;;;1.33;;
19664;SDS011;9980;51.020;7.772;2022-08-05T11:23:41;2.80;;;1.40;;
19664;SDS011;9980;51.020;7.772;2022-08-05T11:26:38;1.30;;;1.13;;
19664;SDS011;9980;51.020;7.772;2022-08-05T11:29:14;1.83;;;1.20;;
19664;SDS011;9980;51.020;7.772;2022-08-05T11:34:53;1.10;;;1.00;;
19664;SDS011;9980;51.020;7.772;2022-08-05T11:37:40;6.03;;;1.53;;
19664;SDS011;9980;51.020;7.772;2022-08-05T11:40:59;0.90;;;0.90;;
19664;SDS011;9980;51.020;7.772;2022-08-05T11:43:50;1.00;;;1.00;;
19664;SDS011;9980;51.020;7.772;2022-08-05T11:46:46;2.40;;;1.30;;
19664;SDS011;9980;51.020;7.772;2022-08-05T11:49:35;1.60;;;1.13;;
19664;SDS011;9980;51.020;7.772;2022-08-05T11:52:03;1.63;;;1.00;;
19664;SDS011;9980;51.020;7.772;2022-08-05T11:54:37;2.20;;;0.90;;
19664;SDS011;9980;51.020;7.772;2022-08-05T11:57:07;6.20;;;2.10;;
19664;SDS011;9980;51.020;7.772;2022-08-05T11:59:51;1.40;;;0.90;;
19664;SDS011;9980;51.020;7.772;2022-08-05T12:02:23;4.03;;;1.43;;
19664;SDS011;9980;51.020;7.772;2022-08-05T12:05:00;4.53;;;1.40;;
19664;SDS011;9980;51.020;7.772;2022-08-05T12:07:36;1.30;;;1.00;;
19664;SDS011;9980;51.020;7.772;2022-08-05T12:10:25;1.33;;;1.20;;
19664;SDS011;9980;51.020;7.772;2022-08-05T12:13:11;3.53;;;1.10;;
19664;SDS011;9980;51.020;7.772;2022-08-05T12:16:01;2.50;;;1.90;;
19664;SDS011;9980;51.020;7.772;2022-08-05T12:18:33;1.10;;;1.00;;
19664;SDS011;9980;51.020;7.772;2022-08-05T12:21:08;3.80;;;1.20;;
19664;SDS011;9980;51.020;7.772;2022-08-05T12:26:45;1.27;;;0.93;;
19664;SDS011;9980;51.020;7.772;2022-08-05T12:29:19;4.87;;;1.60;;
19664;SDS011;9980;51.020;7.772;2022-08-05T12:31:57;1.20;;;1.00;;
19664;SDS011;9980;51.020;7.772;2022-08-05T12:34:28;4.60;;;2.03;;
19664;SDS011;9980;51.020;7.772;2022-08-05T12:37:01;1.43;;;1.00;;
19664;SDS011;9980;51.020;7.772;2022-08-05T12:39:43;3.10;;;1.33;;
19664;SDS011;9980;51.020;7.772;2022-08-05T12:42:18;4.17;;;1.60;;
19664;SDS011;9980;51.020;7.772;2022-08-05T12:44:50;1.37;;;1.27;;
19664;SDS011;9980;51.020;7.772;2022-08-05T12:47:27;1.90;;;1.43;;
19664;SDS011;9980;51.020;7.772;2022-08-05T12:49:56;3.97;;;1.67;;
19664;SDS011;9980;51.020;7.772;2022-08-05T12:52:32;2.53;;;1.20;;
19664;SDS011;9980;51.020;7.772;2022-08-05T12:57:51;2.53;;;1.33;;
19664;SDS011;9980;51.020;7.772;2022-08-05T13:00:41;2.70;;;1.50;;
19664;SDS011;9980;51.020;7.772;2022-08-05T13:03:31;4.63;;;1.43;;
19664;SDS011;9980;51.020;7.772;2022-08-05T13:06:14;3.72;;;1.50;;
19664;SDS011;9980;51.020;7.772;2022-08-05T13:08:46;2.50;;;1.63;;
19664;SDS011;9980;51.020;7.772;2022-08-05T13:11:18;3.93;;;2.10;;
19664;SDS011;9980;51.020;7.772;2022-08-05T13:14:14;3.30;;;1.70;;
19664;SDS011;9980;51.020;7.772;2022-08-05T13:17:02;2.95;;;1.48;;
19664;SDS011;9980;51.020;7.772;2022-08-05T13:20:11;3.20;;;1.38;;
19664;SDS011;9980;51.020;7.772;2022-08-05T13:22:48;2.08;;;1.40;;
19664;SDS011;9980;51.020;7.772;2022-08-05T13:25:17;2.22;;;1.33;;
19664;SDS011;9980;51.020;7.772;2022-08-05T13:27:51;1.50;;;1.40;;
19664;SDS011;9980;51.020;7.772;2022-08-05T13:30:21;2.05;;;1.17;;
19664;SDS011;9980;51.020;7.772;2022-08-05T13:33:04;2.53;;;1.48;;
19664;SDS011;9980;51.020;7.772;2022-08-05T13:35:30;2.40;;;1.10;;
19664;SDS011;9980;51.020;7.772;2022-08-05T13:38:17;3.03;;;1.27;;
19664;SDS011;9980;51.020;7.772;2022-08-05T13:41:01;2.45;;;1.40;;
19664;SDS011;9980;51.020;7.772;2022-08-05T13:43:28;3.28;;;1.40;;
19664;SDS011;9980;51.020;7.772;2022-08-05T13:46:15;3.40;;;1.45;;
19664;SDS011;9980;51.020;7.772;2022-08-05T13:49:02;2.22;;;1.15;;
19664;SDS011;9980;51.020;7.772;2022-08-05T13:51:37;2.45;;;1.30;;
19664;SDS011;9980;51.020;7.772;2022-08-05T13:54:12;2.00;;;1.35;;
19664;SDS011;9980;51.020;7.772;2022-08-05T13:56:41;4.47;;;1.33;;
19664;SDS011;9980;51.020;7.772;2022-08-05T13:59:26;2.40;;;1.10;;
19664;SDS011;9980;51.020;7.772;2022-08-05T14:01:56;3.53;;;1.40;;
19664;SDS011;9980;51.020;7.772;2022-08-05T14:04:27;1.85;;;1.00;;
19664;SDS011;9980;51.020;7.772;2022-08-05T14:07:24;1.20;;;1.10;;
19664;SDS011;9980;51.020;7.772;2022-08-05T14:10:16;1.20;;;1.10;;
19664;SDS011;9980;51.020;7.772;2022-08-05T14:12:54;4.70;;;1.35;;
19664;SDS011;9980;51.020;7.772;2022-08-05T14:15:23;1.08;;;1.02;;
19664;SDS011;9980;51.020;7.772;2022-08-05T14:18:11;2.05;;;1.10;;
19664;SDS011;9980;51.020;7.772;2022-08-05T14:20:44;1.17;;;1.08;;
19664;SDS011;9980;51.020;7.772;2022-08-05T14:23:14;2.05;;;1.30;;
19664;SDS011;9980;51.020;7.772;2022-08-05T14:25:54;1.35;;;1.17;;
19664;SDS011;9980;51.020;7.772;2022-08-05T14:28:26;1.92;;;1.55;;
19664;SDS011;9980;51.020;7.772;2022-08-05T14:30:54;3.85;;;1.90;;
19664;SDS011;9980;51.020;7.772;2022-08-05T14:33:22;2.55;;;1.20;;
19664;SDS011;9980;51.020;7.772;2022-08-05T14:35:49;2.20;;;0.95;;
19664;SDS011;9980;51.020;7.772;2022-08-05T14:38:20;3.20;;;1.40;;
19664;SDS011;9980;51.020;7.772;2022-08-05T14:41:02;3.13;;;1.40;;
19664;SDS011;9980;51.020;7.772;2022-08-05T14:43:36;1.45;;;1.35;;
19664;SDS011;9980;51.020;7.772;2022-08-05T14:46:24;3.40;;;1.33;;
19664;SDS011;9980;51.020;7.772;2022-08-05T14:48:55;2.13;;;1.40;;
19664;SDS011;9980;51.020;7.772;2022-08-05T14:51:28;3.42;;;1.80;;
19664;SDS011;9980;51.020;7.772;2022-08-05T14:53:57;3.90;;;1.80;;
19664;SDS011;9980;51.020;7.772;2022-08-05T14:56:45;5.18;;;1.77;;
19664;SDS011;9980;51.020;7.772;2022-08-05T14:59:12;3.05;;;1.98;;
19664;SDS011;9980;51.020;7.772;2022-08-05T15:01:40;3.22;;;1.80;;
19664;SDS011;9980;51.020;7.772;2022-08-05T15:04:15;5.68;;;2.13;;
19664;SDS011;9980;51.020;7.772;2022-08-05T15:06:47;11.07;;;2.92;;
19664;SDS011;9980;51.020;7.772;2022-08-05T15:09:19;7.15;;;1.90;;
19664;SDS011;9980;51.020;7.772;2022-08-05T15:12:07;3.83;;;1.77;;
19664;SDS011;9980;51.020;7.772;2022-08-05T15:14:41;2.17;;;1.90;;
19664;SDS011;9980;51.020;7.772;2022-08-05T15:17:15;4.13;;;2.28;;
19664;SDS011;9980;51.020;7.772;2022-08-05T15:20:07;2.67;;;1.52;;
19664;SDS011;9980;51.020;7.772;2022-08-05T15:22:45;4.32;;;1.95;;
19664;SDS011;9980;51.020;7.772;2022-08-05T15:25:19;3.80;;;1.90;;
19664;SDS011;9980;51.020;7.772;2022-08-05T15:28:06;2.00;;;1.40;;
19664;SDS011;9980;51.020;7.772;2022-08-05T15:30:38;5.50;;;1.88;;
19664;SDS011;9980;51.020;7.772;2022-08-05T15:33:08;3.15;;;1.85;;
19664;SDS011;9980;51.020;7.772;2022-08-05T15:35:37;2.85;;;2.10;;
19664;SDS011;9980;51.020;7.772;2022-08-05T15:38:11;3.55;;;2.50;;
19664;SDS011;9980;51.020;7.772;2022-08-05T15:40:58;4.50;;;2.30;;
19664;SDS011;9980;51.020;7.772;2022-08-05T15:43:45;2.35;;;1.95;;
19664;SDS011;9980;51.020;7.772;2022-08-05T15:46:13;7.25;;;2.25;;
19664;SDS011;9980;51.020;7.772;2022-08-05T15:48:40;5.28;;;2.28;;
19664;SDS011;9980;51.020;7.772;2022-08-05T15:51:23;4.03;;;1.80;;
19664;SDS011;9980;51.020;7.772;2022-08-05T15:54:14;3.85;;;1.88;;
19664;SDS011;9980;51.020;7.772;2022-08-05T15:56:41;2.38;;;2.00;;
19664;SDS011;9980;51.020;7.772;2022-08-05T15:59:09;2.00;;;1.80;;
19664;SDS011;9980;51.020;7.772;2022-08-05T16:01:48;2.70;;;1.88;;
19664;SDS011;9980;51.020;7.772;2022-08-05T16:04:19;4.60;;;2.90;;
19664;SDS011;9980;51.020;7.772;2022-08-05T16:06:51;4.00;;;2.30;;
19664;SDS011;9980;51.020;7.772;2022-08-05T16:09:21;3.55;;;2.72;;
19664;SDS011;9980;51.020;7.772;2022-08-05T16:11:50;2.97;;;2.13;;
19664;SDS011;9980;51.020;7.772;2022-08-05T16:14:19;4.03;;;2.40;;
19664;SDS011;9980;51.020;7.772;2022-08-05T16:16:47;5.28;;;2.80;;
19664;SDS011;9980;51.020;7.772;2022-08-05T16:19:15;3.05;;;2.25;;
19664;SDS011;9980;51.020;7.772;2022-08-05T16:22:02;4.80;;;2.63;;
19664;SDS011;9980;51.020;7.772;2022-08-05T16:24:32;3.65;;;2.58;;
19664;SDS011;9980;51.020;7.772;2022-08-05T16:27:16;4.78;;;3.05;;
19664;SDS011;9980;51.020;7.772;2022-08-05T16:29:43;4.55;;;2.30;;
19664;SDS011;9980;51.020;7.772;2022-08-05T16:32:16;3.27;;;2.33;;
19664;SDS011;9980;51.020;7.772;2022-08-05T16:34:55;2.47;;;1.80;;
19664;SDS011;9980;51.020;7.772;2022-08-05T16:37:24;3.08;;;1.52;;
19664;SDS011;9980;51.020;7.772;2022-08-05T16:40:12;2.50;;;1.33;;
19664;SDS011;9980;51.020;7.772;2022-08-05T16:42:54;1.30;;;1.20;;